sensor_id;sensor_type;location;lat;lon;timestamp;P1;durP1;ratioP1;P2;durP2;ratioP2
8165;SDS011;4124;50.856;3.634;2022-07-29T00:02:19;3.57;;;2.57;;
8165;SDS011;4124;50.856;3.634;2022-07-29T00:04:44;3.20;;;2.23;;
8165;SDS011;4124;50.856;3.634;2022-07-29T00:07:10;2.50;;;2.27;;
8165;SDS011;4124;50.856;3.634;2022-07-29T00:09:35;2.73;;;2.47;;
8165;SDS011;4124;50.856;3.634;2022-07-29T00:12:00;2.67;;;2.47;;
8165;SDS011;4124;50.856;3.634;2022-07-29T00:14:26;2.43;;;1.90;;
8165;SDS011;4124;50.856;3.634;2022-07-29T00:16:51;2.73;;;2.30;;
8165;SDS011;4124;50.856;3.634;2022-07-29T00:19:16;3.27;;;2.30;;
8165;SDS011;4124;50.856;3.634;2022-07-29T00:21:42;3.13;;;2.00;;
8165;SDS011;4124;50.856;3.634;2022-07-29T00:24:07;2.90;;;2.20;;
8165;SDS011;4124;50.856;3.634;2022-07-29T00:26:32;2.53;;;2.33;;
8165;SDS011;4124;50.856;3.634;2022-07-29T00:29:01;2.50;;;2.27;;
8165;SDS011;4124;50.856;3.634;2022-07-29T00:31:27;2.80;;;2.43;;
8165;SDS011;4124;50.856;3.634;2022-07-29T00:33:52;2.97;;;2.40;;
8165;SDS011;4124;50.856;3.634;2022-07-29T00:36:18;2.63;;;2.10;;
8165;SDS011;4124;50.856;3.634;2022-07-29T00:38:43;2.10;;;1.90;;
8165;SDS011;4124;50.856;3.634;2022-07-29T00:41:10;2.53;;;2.27;;
8165;SDS011;4124;50.856;3.634;2022-07-29T00:43:35;2.30;;;2.10;;
8165;SDS011;4124;50.856;3.634;2022-07-29T00:46:00;2.20;;;2.00;;
8165;SDS011;4124;50.856;3.634;2022-07-29T00:48:26;3.30;;;2.03;;
8165;SDS011;4124;50.856;3.634;2022-07-29T00:50:51;2.90;;;2.50;;
8165;SDS011;4124;50.856;3.634;2022-07-29T00:53:17;2.60;;;2.40;;
8165;SDS011;4124;50.856;3.634;2022-07-29T00:55:42;2.27;;;2.07;;
8165;SDS011;4124;50.856;3.634;2022-07-29T00:58:07;2.47;;;2.13;;
8165;SDS011;4124;50.856;3.634;2022-07-29T01:00:33;2.33;;;2.13;;
8165;SDS011;4124;50.856;3.634;2022-07-29T01:02:58;2.33;;;2.13;;
8165;SDS011;4124;50.856;3.634;2022-07-29T01:05:24;2.50;;;2.20;;
8165;SDS011;4124;50.856;3.634;2022-07-29T01:07:51;2.33;;;2.10;;
8165;SDS011;4124;50.856;3.634;2022-07-29T01:10:17;2.00;;;1.80;;
8165;SDS011;4124;50.856;3.634;2022-07-29T01:12:43;3.20;;;2.20;;
8165;SDS011;4124;50.856;3.634;2022-07-29T01:15:10;2.87;;;2.50;;
8165;SDS011;4124;50.856;3.634;2022-07-29T01:20:03;2.80;;;2.10;;
8165;SDS011;4124;50.856;3.634;2022-07-29T01:27:47;2.10;;;1.90;;
8165;SDS011;4124;50.856;3.634;2022-07-29T01:30:16;2.23;;;2.03;;
8165;SDS011;4124;50.856;3.634;2022-07-29T01:32:41;2.73;;;2.27;;
8165;SDS011;4124;50.856;3.634;2022-07-29T01:35:19;2.23;;;1.97;;
8165;SDS011;4124;50.856;3.634;2022-07-29T01:41:03;2.30;;;2.10;;
8165;SDS011;4124;50.856;3.634;2022-07-29T01:43:00;1.77;;;1.67;;
8165;SDS011;4124;50.856;3.634;2022-07-29T01:48:13;2.07;;;1.80;;
8165;SDS011;4124;50.856;3.634;2022-07-29T01:50:42;2.53;;;2.10;;
8165;SDS011;4124;50.856;3.634;2022-07-29T01:53:10;2.43;;;2.10;;
8165;SDS011;4124;50.856;3.634;2022-07-29T01:55:41;2.87;;;2.33;;
8165;SDS011;4124;50.856;3.634;2022-07-29T01:58:07;3.10;;;2.27;;
8165;SDS011;4124;50.856;3.634;2022-07-29T02:00:34;2.00;;;1.80;;
8165;SDS011;4124;50.856;3.634;2022-07-29T02:03:01;2.20;;;2.00;;
8165;SDS011;4124;50.856;3.634;2022-07-29T02:05:27;3.00;;;2.37;;
8165;SDS011;4124;50.856;3.634;2022-07-29T02:07:53;2.20;;;1.87;;
8165;SDS011;4124;50.856;3.634;2022-07-29T02:10:21;2.17;;;1.97;;
8165;SDS011;4124;50.856;3.634;2022-07-29T02:12:47;1.97;;;1.80;;
8165;SDS011;4124;50.856;3.634;2022-07-29T02:15:13;2.47;;;1.80;;
8165;SDS011;4124;50.856;3.634;2022-07-29T02:17:53;2.40;;;2.20;;
8165;SDS011;4124;50.856;3.634;2022-07-29T02:20:20;4.00;;;1.90;;
8165;SDS011;4124;50.856;3.634;2022-07-29T02:22:47;2.10;;;1.90;;
8165;SDS011;4124;50.856;3.634;2022-07-29T02:25:13;2.30;;;1.70;;
8165;SDS011;4124;50.856;3.634;2022-07-29T02:27:40;2.13;;;1.73;;
8165;SDS011;4124;50.856;3.634;2022-07-29T02:30:06;3.07;;;2.13;;
8165;SDS011;4124;50.856;3.634;2022-07-29T02:32:32;2.50;;;1.97;;
8165;SDS011;4124;50.856;3.634;2022-07-29T02:34:59;2.10;;;1.90;;
8165;SDS011;4124;50.856;3.634;2022-07-29T02:37:25;2.20;;;1.90;;
8165;SDS011;4124;50.856;3.634;2022-07-29T02:39:52;2.17;;;1.97;;
8165;SDS011;4124;50.856;3.634;2022-07-29T02:42:18;2.07;;;1.87;;
8165;SDS011;4124;50.856;3.634;2022-07-29T02:44:46;2.70;;;2.03;;
8165;SDS011;4124;50.856;3.634;2022-07-29T02:47:13;2.10;;;1.90;;
8165;SDS011;4124;50.856;3.634;2022-07-29T02:49:55;2.13;;;1.93;;
8165;SDS011;4124;50.856;3.634;2022-07-29T02:52:31;2.17;;;1.97;;
8165;SDS011;4124;50.856;3.634;2022-07-29T02:55:04;2.10;;;1.90;;
8165;SDS011;4124;50.856;3.634;2022-07-29T03:00:25;2.07;;;1.87;;
8165;SDS011;4124;50.856;3.634;2022-07-29T03:02:52;2.20;;;2.00;;
8165;SDS011;4124;50.856;3.634;2022-07-29T03:05:19;2.87;;;2.00;;
8165;SDS011;4124;50.856;3.634;2022-07-29T03:07:45;1.87;;;1.63;;
8165;SDS011;4124;50.856;3.634;2022-07-29T03:10:11;2.40;;;2.20;;
8165;SDS011;4124;50.856;3.634;2022-07-29T03:12:36;2.17;;;1.90;;
8165;SDS011;4124;50.856;3.634;2022-07-29T03:15:02;1.57;;;1.47;;
8165;SDS011;4124;50.856;3.634;2022-07-29T03:17:27;2.20;;;1.97;;
8165;SDS011;4124;50.856;3.634;2022-07-29T03:19:53;1.70;;;1.60;;
8165;SDS011;4124;50.856;3.634;2022-07-29T03:22:19;1.77;;;1.67;;
8165;SDS011;4124;50.856;3.634;2022-07-29T03:24:44;1.80;;;1.67;;
8165;SDS011;4124;50.856;3.634;2022-07-29T03:27:10;2.13;;;1.93;;
8165;SDS011;4124;50.856;3.634;2022-07-29T03:29:35;1.63;;;1.53;;
8165;SDS011;4124;50.856;3.634;2022-07-29T03:32:02;1.70;;;1.60;;
8165;SDS011;4124;50.856;3.634;2022-07-29T03:34:27;1.50;;;1.40;;
8165;SDS011;4124;50.856;3.634;2022-07-29T03:36:52;1.60;;;1.50;;
8165;SDS011;4124;50.856;3.634;2022-07-29T03:39:20;2.20;;;2.00;;
8165;SDS011;4124;50.856;3.634;2022-07-29T03:41:47;1.90;;;1.70;;
8165;SDS011;4124;50.856;3.634;2022-07-29T03:44:13;2.00;;;1.80;;
8165;SDS011;4124;50.856;3.634;2022-07-29T03:46:39;2.00;;;1.80;;
8165;SDS011;4124;50.856;3.634;2022-07-29T03:49:06;1.80;;;1.70;;
8165;SDS011;4124;50.856;3.634;2022-07-29T03:51:33;2.40;;;2.03;;
8165;SDS011;4124;50.856;3.634;2022-07-29T03:53:58;2.23;;;1.80;;
8165;SDS011;4124;50.856;3.634;2022-07-29T03:56:23;1.80;;;1.60;;
8165;SDS011;4124;50.856;3.634;2022-07-29T03:58:50;2.10;;;1.90;;
8165;SDS011;4124;50.856;3.634;2022-07-29T04:01:16;1.70;;;1.43;;
8165;SDS011;4124;50.856;3.634;2022-07-29T04:03:43;2.13;;;1.90;;
8165;SDS011;4124;50.856;3.634;2022-07-29T04:06:10;1.70;;;1.60;;
8165;SDS011;4124;50.856;3.634;2022-07-29T04:08:35;2.77;;;1.70;;
8165;SDS011;4124;50.856;3.634;2022-07-29T04:11:01;1.83;;;1.70;;
8165;SDS011;4124;50.856;3.634;2022-07-29T04:13:26;3.00;;;2.00;;
8165;SDS011;4124;50.856;3.634;2022-07-29T04:15:51;2.10;;;1.90;;
8165;SDS011;4124;50.856;3.634;2022-07-29T04:18:16;2.17;;;1.97;;
8165;SDS011;4124;50.856;3.634;2022-07-29T04:20:42;2.13;;;1.83;;
8165;SDS011;4124;50.856;3.634;2022-07-29T04:23:07;1.90;;;1.70;;
8165;SDS011;4124;50.856;3.634;2022-07-29T04:25:32;2.30;;;2.03;;
8165;SDS011;4124;50.856;3.634;2022-07-29T04:27:57;2.60;;;2.00;;
8165;SDS011;4124;50.856;3.634;2022-07-29T04:30:26;2.03;;;1.90;;
8165;SDS011;4124;50.856;3.634;2022-07-29T04:32:51;2.23;;;1.80;;
8165;SDS011;4124;50.856;3.634;2022-07-29T04:35:17;2.10;;;1.90;;
8165;SDS011;4124;50.856;3.634;2022-07-29T04:37:42;1.97;;;1.70;;
8165;SDS011;4124;50.856;3.634;2022-07-29T04:40:07;1.60;;;1.50;;
8165;SDS011;4124;50.856;3.634;2022-07-29T04:42:33;1.77;;;1.67;;
8165;SDS011;4124;50.856;3.634;2022-07-29T04:44:58;2.33;;;2.07;;
8165;SDS011;4124;50.856;3.634;2022-07-29T04:47:23;1.73;;;1.60;;
8165;SDS011;4124;50.856;3.634;2022-07-29T04:49:49;2.40;;;1.87;;
8165;SDS011;4124;50.856;3.634;2022-07-29T04:52:14;2.33;;;1.77;;
8165;SDS011;4124;50.856;3.634;2022-07-29T04:54:39;2.17;;;1.97;;
8165;SDS011;4124;50.856;3.634;2022-07-29T04:57:04;2.33;;;1.50;;
8165;SDS011;4124;50.856;3.634;2022-07-29T04:59:29;2.50;;;1.70;;
8165;SDS011;4124;50.856;3.634;2022-07-29T05:01:55;3.13;;;1.77;;
8165;SDS011;4124;50.856;3.634;2022-07-29T05:04:20;2.00;;;1.60;;
8165;SDS011;4124;50.856;3.634;2022-07-29T05:06:45;3.03;;;2.00;;
8165;SDS011;4124;50.856;3.634;2022-07-29T05:09:10;1.53;;;1.40;;
8165;SDS011;4124;50.856;3.634;2022-07-29T05:11:36;2.07;;;1.87;;
8165;SDS011;4124;50.856;3.634;2022-07-29T05:14:01;1.90;;;1.70;;
8165;SDS011;4124;50.856;3.634;2022-07-29T05:16:26;2.37;;;1.80;;
8165;SDS011;4124;50.856;3.634;2022-07-29T05:18:52;6.43;;;2.03;;
8165;SDS011;4124;50.856;3.634;2022-07-29T05:21:17;4.67;;;2.03;;
8165;SDS011;4124;50.856;3.634;2022-07-29T05:23:43;4.27;;;2.60;;
8165;SDS011;4124;50.856;3.634;2022-07-29T05:26:08;4.77;;;2.47;;
8165;SDS011;4124;50.856;3.634;2022-07-29T05:28:33;5.43;;;2.50;;
8165;SDS011;4124;50.856;3.634;2022-07-29T05:30:59;4.27;;;2.33;;
8165;SDS011;4124;50.856;3.634;2022-07-29T05:33:25;5.07;;;2.77;;
8165;SDS011;4124;50.856;3.634;2022-07-29T05:35:50;3.00;;;2.20;;
8165;SDS011;4124;50.856;3.634;2022-07-29T05:38:16;8.23;;;2.83;;
8165;SDS011;4124;50.856;3.634;2022-07-29T05:40:41;8.93;;;2.70;;
8165;SDS011;4124;50.856;3.634;2022-07-29T05:43:06;8.80;;;2.80;;
8165;SDS011;4124;50.856;3.634;2022-07-29T05:45:31;6.57;;;2.93;;
8165;SDS011;4124;50.856;3.634;2022-07-29T05:47:57;4.47;;;2.87;;
8165;SDS011;4124;50.856;3.634;2022-07-29T05:50:22;8.33;;;3.10;;
8165;SDS011;4124;50.856;3.634;2022-07-29T05:52:47;6.17;;;2.70;;
8165;SDS011;4124;50.856;3.634;2022-07-29T05:55:13;10.13;;;2.50;;
8165;SDS011;4124;50.856;3.634;2022-07-29T05:57:38;3.20;;;1.90;;
8165;SDS011;4124;50.856;3.634;2022-07-29T06:00:03;7.80;;;2.30;;
8165;SDS011;4124;50.856;3.634;2022-07-29T06:02:29;4.53;;;2.37;;
8165;SDS011;4124;50.856;3.634;2022-07-29T06:04:54;3.73;;;2.17;;
8165;SDS011;4124;50.856;3.634;2022-07-29T06:07:20;7.90;;;2.60;;
8165;SDS011;4124;50.856;3.634;2022-07-29T06:09:45;3.83;;;2.43;;
8165;SDS011;4124;50.856;3.634;2022-07-29T06:12:10;5.00;;;2.73;;
8165;SDS011;4124;50.856;3.634;2022-07-29T06:14:35;4.23;;;2.57;;
8165;SDS011;4124;50.856;3.634;2022-07-29T06:17:02;4.00;;;2.50;;
8165;SDS011;4124;50.856;3.634;2022-07-29T06:19:28;6.10;;;2.87;;
8165;SDS011;4124;50.856;3.634;2022-07-29T06:21:53;4.73;;;2.60;;
8165;SDS011;4124;50.856;3.634;2022-07-29T06:24:18;4.80;;;2.50;;
8165;SDS011;4124;50.856;3.634;2022-07-29T06:26:44;5.60;;;2.43;;
8165;SDS011;4124;50.856;3.634;2022-07-29T06:29:09;3.70;;;2.20;;
8165;SDS011;4124;50.856;3.634;2022-07-29T06:31:38;4.73;;;2.30;;
8165;SDS011;4124;50.856;3.634;2022-07-29T06:34:03;2.53;;;1.90;;
8165;SDS011;4124;50.856;3.634;2022-07-29T06:36:29;5.80;;;2.70;;
8165;SDS011;4124;50.856;3.634;2022-07-29T06:38:54;4.90;;;2.20;;
8165;SDS011;4124;50.856;3.634;2022-07-29T06:41:20;4.27;;;2.43;;
8165;SDS011;4124;50.856;3.634;2022-07-29T06:43:45;2.50;;;2.30;;
8165;SDS011;4124;50.856;3.634;2022-07-29T06:46:12;6.03;;;3.10;;
8165;SDS011;4124;50.856;3.634;2022-07-29T06:48:38;2.90;;;2.23;;
8165;SDS011;4124;50.856;3.634;2022-07-29T06:51:03;4.00;;;2.20;;
8165;SDS011;4124;50.856;3.634;2022-07-29T06:53:29;2.87;;;2.20;;
8165;SDS011;4124;50.856;3.634;2022-07-29T06:55:55;4.00;;;1.97;;
8165;SDS011;4124;50.856;3.634;2022-07-29T06:58:21;7.17;;;2.20;;
8165;SDS011;4124;50.856;3.634;2022-07-29T07:00:46;4.53;;;2.60;;
8165;SDS011;4124;50.856;3.634;2022-07-29T07:03:12;6.30;;;2.80;;
8165;SDS011;4124;50.856;3.634;2022-07-29T07:05:38;3.13;;;2.00;;
8165;SDS011;4124;50.856;3.634;2022-07-29T07:08:03;5.87;;;2.90;;
8165;SDS011;4124;50.856;3.634;2022-07-29T07:10:29;7.77;;;3.60;;
8165;SDS011;4124;50.856;3.634;2022-07-29T07:12:54;6.60;;;3.33;;
8165;SDS011;4124;50.856;3.634;2022-07-29T07:15:19;7.80;;;3.23;;
8165;SDS011;4124;50.856;3.634;2022-07-29T07:17:47;5.57;;;3.50;;
8165;SDS011;4124;50.856;3.634;2022-07-29T07:20:13;11.93;;;3.83;;
8165;SDS011;4124;50.856;3.634;2022-07-29T07:22:38;6.70;;;3.93;;
8165;SDS011;4124;50.856;3.634;2022-07-29T07:25:03;11.27;;;3.57;;
8165;SDS011;4124;50.856;3.634;2022-07-29T07:27:29;7.60;;;3.50;;
8165;SDS011;4124;50.856;3.634;2022-07-29T07:29:54;6.90;;;3.67;;
8165;SDS011;4124;50.856;3.634;2022-07-29T07:32:20;8.53;;;3.63;;
8165;SDS011;4124;50.856;3.634;2022-07-29T07:34:45;11.70;;;3.67;;
8165;SDS011;4124;50.856;3.634;2022-07-29T07:37:11;9.87;;;3.80;;
8165;SDS011;4124;50.856;3.634;2022-07-29T07:39:36;6.20;;;4.00;;
8165;SDS011;4124;50.856;3.634;2022-07-29T07:42:01;9.57;;;3.87;;
8165;SDS011;4124;50.856;3.634;2022-07-29T07:44:26;5.33;;;3.70;;
8165;SDS011;4124;50.856;3.634;2022-07-29T07:46:52;10.47;;;4.10;;
8165;SDS011;4124;50.856;3.634;2022-07-29T07:49:17;6.67;;;3.53;;
8165;SDS011;4124;50.856;3.634;2022-07-29T07:51:42;6.00;;;3.63;;
8165;SDS011;4124;50.856;3.634;2022-07-29T07:54:08;14.30;;;3.80;;
8165;SDS011;4124;50.856;3.634;2022-07-29T07:56:33;4.53;;;2.67;;
8165;SDS011;4124;50.856;3.634;2022-07-29T07:58:58;6.00;;;3.20;;
8165;SDS011;4124;50.856;3.634;2022-07-29T08:01:23;6.00;;;3.70;;
8165;SDS011;4124;50.856;3.634;2022-07-29T08:03:49;9.40;;;3.60;;
8165;SDS011;4124;50.856;3.634;2022-07-29T08:06:14;4.93;;;2.90;;
8165;SDS011;4124;50.856;3.634;2022-07-29T08:08:40;11.50;;;3.97;;
8165;SDS011;4124;50.856;3.634;2022-07-29T08:11:05;5.93;;;3.10;;
8165;SDS011;4124;50.856;3.634;2022-07-29T08:13:31;7.17;;;3.20;;
8165;SDS011;4124;50.856;3.634;2022-07-29T08:15:56;5.93;;;3.10;;
8165;SDS011;4124;50.856;3.634;2022-07-29T08:18:30;10.03;;;3.63;;
8165;SDS011;4124;50.856;3.634;2022-07-29T08:20:56;4.10;;;3.20;;
8165;SDS011;4124;50.856;3.634;2022-07-29T08:23:21;8.20;;;3.23;;
8165;SDS011;4124;50.856;3.634;2022-07-29T08:25:48;5.80;;;3.43;;
8165;SDS011;4124;50.856;3.634;2022-07-29T08:28:13;4.47;;;3.40;;
8165;SDS011;4124;50.856;3.634;2022-07-29T08:30:39;6.00;;;3.13;;
8165;SDS011;4124;50.856;3.634;2022-07-29T08:33:04;5.67;;;3.10;;
8165;SDS011;4124;50.856;3.634;2022-07-29T08:35:29;6.27;;;3.27;;
8165;SDS011;4124;50.856;3.634;2022-07-29T08:37:54;7.70;;;3.37;;
8165;SDS011;4124;50.856;3.634;2022-07-29T08:40:21;7.43;;;2.77;;
8165;SDS011;4124;50.856;3.634;2022-07-29T08:42:48;9.03;;;3.70;;
8165;SDS011;4124;50.856;3.634;2022-07-29T08:45:13;5.07;;;2.70;;
8165;SDS011;4124;50.856;3.634;2022-07-29T08:47:39;9.83;;;3.33;;
8165;SDS011;4124;50.856;3.634;2022-07-29T08:50:05;5.97;;;3.40;;
8165;SDS011;4124;50.856;3.634;2022-07-29T08:52:30;4.10;;;3.27;;
8165;SDS011;4124;50.856;3.634;2022-07-29T08:54:57;5.97;;;3.37;;
8165;SDS011;4124;50.856;3.634;2022-07-29T08:57:23;10.77;;;3.40;;
8165;SDS011;4124;50.856;3.634;2022-07-29T08:59:49;8.10;;;3.57;;
8165;SDS011;4124;50.856;3.634;2022-07-29T09:02:18;8.60;;;3.60;;
8165;SDS011;4124;50.856;3.634;2022-07-29T09:04:44;5.60;;;3.10;;
8165;SDS011;4124;50.856;3.634;2022-07-29T09:07:10;9.80;;;4.00;;
8165;SDS011;4124;50.856;3.634;2022-07-29T09:09:39;9.60;;;3.57;;
8165;SDS011;4124;50.856;3.634;2022-07-29T09:12:05;8.27;;;3.67;;
8165;SDS011;4124;50.856;3.634;2022-07-29T09:14:32;9.80;;;4.50;;
8165;SDS011;4124;50.856;3.634;2022-07-29T09:16:57;13.23;;;4.33;;
8165;SDS011;4124;50.856;3.634;2022-07-29T09:19:27;9.17;;;3.53;;
8165;SDS011;4124;50.856;3.634;2022-07-29T09:21:53;7.00;;;3.40;;
8165;SDS011;4124;50.856;3.634;2022-07-29T09:26:59;4.40;;;3.10;;
8165;SDS011;4124;50.856;3.634;2022-07-29T09:29:25;6.97;;;3.40;;
8165;SDS011;4124;50.856;3.634;2022-07-29T09:31:52;4.67;;;3.20;;
8165;SDS011;4124;50.856;3.634;2022-07-29T09:34:28;5.20;;;3.60;;
8165;SDS011;4124;50.856;3.634;2022-07-29T09:36:54;4.70;;;2.90;;
8165;SDS011;4124;50.856;3.634;2022-07-29T09:39:33;5.93;;;3.13;;
8165;SDS011;4124;50.856;3.634;2022-07-29T09:42:00;5.00;;;3.87;;
8165;SDS011;4124;50.856;3.634;2022-07-29T09:44:26;4.93;;;3.40;;
8165;SDS011;4124;50.856;3.634;2022-07-29T09:49:19;8.10;;;3.80;;
8165;SDS011;4124;50.856;3.634;2022-07-29T09:51:45;15.47;;;5.27;;
8165;SDS011;4124;50.856;3.634;2022-07-29T09:54:25;25.23;;;7.27;;
8165;SDS011;4124;50.856;3.634;2022-07-29T09:56:52;30.10;;;9.33;;
8165;SDS011;4124;50.856;3.634;2022-07-29T09:59:18;25.97;;;9.13;;
8165;SDS011;4124;50.856;3.634;2022-07-29T10:01:45;22.23;;;7.80;;
8165;SDS011;4124;50.856;3.634;2022-07-29T10:04:10;21.67;;;5.90;;
8165;SDS011;4124;50.856;3.634;2022-07-29T10:06:38;16.60;;;5.43;;
8165;SDS011;4124;50.856;3.634;2022-07-29T10:09:19;14.70;;;4.93;;
8165;SDS011;4124;50.856;3.634;2022-07-29T10:11:47;13.70;;;4.77;;
8165;SDS011;4124;50.856;3.634;2022-07-29T10:14:27;11.43;;;4.50;;
8165;SDS011;4124;50.856;3.634;2022-07-29T10:16:52;10.93;;;3.83;;
8165;SDS011;4124;50.856;3.634;2022-07-29T10:19:18;12.03;;;4.10;;
8165;SDS011;4124;50.856;3.634;2022-07-29T10:21:44;8.53;;;3.40;;
8165;SDS011;4124;50.856;3.634;2022-07-29T10:24:09;8.37;;;3.63;;
8165;SDS011;4124;50.856;3.634;2022-07-29T10:26:35;7.90;;;3.30;;
8165;SDS011;4124;50.856;3.634;2022-07-29T10:29:02;11.23;;;3.90;;
8165;SDS011;4124;50.856;3.634;2022-07-29T10:31:36;7.27;;;3.33;;
8165;SDS011;4124;50.856;3.634;2022-07-29T10:34:12;8.00;;;3.43;;
8165;SDS011;4124;50.856;3.634;2022-07-29T10:39:19;7.33;;;3.10;;
8165;SDS011;4124;50.856;3.634;2022-07-29T10:41:56;11.77;;;2.70;;
8165;SDS011;4124;50.856;3.634;2022-07-29T10:44:24;4.50;;;2.90;;
8165;SDS011;4124;50.856;3.634;2022-07-29T10:46:50;8.50;;;3.87;;
8165;SDS011;4124;50.856;3.634;2022-07-29T10:49:17;5.73;;;2.80;;
8165;SDS011;4124;50.856;3.634;2022-07-29T10:54:18;8.40;;;3.00;;
8165;SDS011;4124;50.856;3.634;2022-07-29T10:56:43;4.23;;;2.77;;
8165;SDS011;4124;50.856;3.634;2022-07-29T11:01:43;4.97;;;2.90;;
8165;SDS011;4124;50.856;3.634;2022-07-29T11:04:08;6.43;;;2.90;;
8165;SDS011;4124;50.856;3.634;2022-07-29T11:09:18;5.57;;;2.67;;
8165;SDS011;4124;50.856;3.634;2022-07-29T11:11:44;4.30;;;3.00;;
8165;SDS011;4124;50.856;3.634;2022-07-29T11:14:10;5.80;;;2.80;;
8165;SDS011;4124;50.856;3.634;2022-07-29T11:19:20;6.43;;;3.23;;
8165;SDS011;4124;50.856;3.634;2022-07-29T11:21:45;8.37;;;3.27;;
8165;SDS011;4124;50.856;3.634;2022-07-29T11:26:43;5.50;;;2.50;;
8165;SDS011;4124;50.856;3.634;2022-07-29T11:29:21;4.37;;;2.57;;
8165;SDS011;4124;50.856;3.634;2022-07-29T11:31:50;3.50;;;2.30;;
8165;SDS011;4124;50.856;3.634;2022-07-29T11:34:31;3.30;;;2.27;;
8165;SDS011;4124;50.856;3.634;2022-07-29T11:39:32;7.47;;;3.13;;
8165;SDS011;4124;50.856;3.634;2022-07-29T11:42:41;6.43;;;3.23;;
8165;SDS011;4124;50.856;3.634;2022-07-29T11:47:25;4.73;;;2.70;;
8165;SDS011;4124;50.856;3.634;2022-07-29T11:49:50;14.13;;;3.33;;
8165;SDS011;4124;50.856;3.634;2022-07-29T11:52:16;5.63;;;2.90;;
8165;SDS011;4124;50.856;3.634;2022-07-29T11:54:42;3.83;;;2.73;;
8165;SDS011;4124;50.856;3.634;2022-07-29T11:57:07;3.70;;;2.30;;
8165;SDS011;4124;50.856;3.634;2022-07-29T11:59:38;7.50;;;2.97;;
8165;SDS011;4124;50.856;3.634;2022-07-29T12:02:04;6.90;;;2.70;;
8165;SDS011;4124;50.856;3.634;2022-07-29T12:04:29;6.67;;;2.97;;
8165;SDS011;4124;50.856;3.634;2022-07-29T12:06:55;4.40;;;3.03;;
8165;SDS011;4124;50.856;3.634;2022-07-29T12:09:21;6.03;;;2.90;;
8165;SDS011;4124;50.856;3.634;2022-07-29T12:11:46;5.20;;;2.20;;
8165;SDS011;4124;50.856;3.634;2022-07-29T12:16:49;5.03;;;2.87;;
8165;SDS011;4124;50.856;3.634;2022-07-29T12:19:15;5.20;;;3.40;;
8165;SDS011;4124;50.856;3.634;2022-07-29T12:21:47;5.37;;;2.97;;
8165;SDS011;4124;50.856;3.634;2022-07-29T12:24:12;5.07;;;2.93;;
8165;SDS011;4124;50.856;3.634;2022-07-29T12:26:49;5.03;;;2.90;;
8165;SDS011;4124;50.856;3.634;2022-07-29T12:29:17;3.93;;;2.80;;
8165;SDS011;4124;50.856;3.634;2022-07-29T12:31:43;4.97;;;3.10;;
8165;SDS011;4124;50.856;3.634;2022-07-29T12:34:10;3.90;;;3.07;;
8165;SDS011;4124;50.856;3.634;2022-07-29T12:36:35;3.60;;;2.73;;
8165;SDS011;4124;50.856;3.634;2022-07-29T12:39:01;5.10;;;3.13;;
8165;SDS011;4124;50.856;3.634;2022-07-29T12:41:29;3.50;;;2.77;;
8165;SDS011;4124;50.856;3.634;2022-07-29T12:43:55;3.40;;;2.93;;
8165;SDS011;4124;50.856;3.634;2022-07-29T12:46:20;5.37;;;2.97;;
8165;SDS011;4124;50.856;3.634;2022-07-29T12:48:49;6.20;;;2.90;;
8165;SDS011;4124;50.856;3.634;2022-07-29T12:51:15;5.27;;;2.93;;
8165;SDS011;4124;50.856;3.634;2022-07-29T12:54:00;3.77;;;2.60;;
8165;SDS011;4124;50.856;3.634;2022-07-29T12:56:26;4.80;;;2.60;;
8165;SDS011;4124;50.856;3.634;2022-07-29T12:58:51;4.30;;;2.67;;
8165;SDS011;4124;50.856;3.634;2022-07-29T13:01:17;4.30;;;2.90;;
8165;SDS011;4124;50.856;3.634;2022-07-29T13:03:48;3.50;;;2.70;;
8165;SDS011;4124;50.856;3.634;2022-07-29T13:06:30;4.83;;;2.30;;
8165;SDS011;4124;50.856;3.634;2022-07-29T13:09:06;2.80;;;2.53;;
8165;SDS011;4124;50.856;3.634;2022-07-29T13:14:07;5.23;;;2.57;;
8165;SDS011;4124;50.856;3.634;2022-07-29T13:16:33;3.30;;;2.83;;
8165;SDS011;4124;50.856;3.634;2022-07-29T13:21:30;2.97;;;2.63;;
8165;SDS011;4124;50.856;3.634;2022-07-29T13:23:55;3.53;;;3.03;;
8165;SDS011;4124;50.856;3.634;2022-07-29T13:26:20;3.60;;;2.70;;
8165;SDS011;4124;50.856;3.634;2022-07-29T13:28:46;4.50;;;2.50;;
8165;SDS011;4124;50.856;3.634;2022-07-29T13:31:11;7.30;;;2.70;;
8165;SDS011;4124;50.856;3.634;2022-07-29T13:33:36;2.30;;;2.10;;
8165;SDS011;4124;50.856;3.634;2022-07-29T13:36:01;3.90;;;2.83;;
8165;SDS011;4124;50.856;3.634;2022-07-29T13:38:27;4.87;;;2.23;;
8165;SDS011;4124;50.856;3.634;2022-07-29T13:40:52;2.50;;;2.27;;
8165;SDS011;4124;50.856;3.634;2022-07-29T13:43:17;3.50;;;2.43;;
8165;SDS011;4124;50.856;3.634;2022-07-29T13:45:43;3.63;;;2.50;;
8165;SDS011;4124;50.856;3.634;2022-07-29T13:48:08;3.37;;;2.80;;
8165;SDS011;4124;50.856;3.634;2022-07-29T13:50:33;5.33;;;2.50;;
8165;SDS011;4124;50.856;3.634;2022-07-29T13:52:58;5.17;;;2.70;;
8165;SDS011;4124;50.856;3.634;2022-07-29T13:55:24;5.40;;;3.10;;
8165;SDS011;4124;50.856;3.634;2022-07-29T13:57:49;3.07;;;2.60;;
8165;SDS011;4124;50.856;3.634;2022-07-29T14:00:15;2.40;;;2.20;;
8165;SDS011;4124;50.856;3.634;2022-07-29T14:02:41;4.80;;;2.57;;
8165;SDS011;4124;50.856;3.634;2022-07-29T14:05:06;3.20;;;2.80;;
8165;SDS011;4124;50.856;3.634;2022-07-29T14:07:32;2.83;;;2.40;;
8165;SDS011;4124;50.856;3.634;2022-07-29T14:09:57;4.13;;;2.30;;
8165;SDS011;4124;50.856;3.634;2022-07-29T14:12:22;3.60;;;2.63;;
8165;SDS011;4124;50.856;3.634;2022-07-29T14:14:48;3.10;;;2.43;;
8165;SDS011;4124;50.856;3.634;2022-07-29T14:17:13;2.60;;;2.27;;
8165;SDS011;4124;50.856;3.634;2022-07-29T14:19:39;2.83;;;2.37;;
8165;SDS011;4124;50.856;3.634;2022-07-29T14:22:04;3.50;;;2.17;;
8165;SDS011;4124;50.856;3.634;2022-07-29T14:24:29;4.37;;;2.73;;
8165;SDS011;4124;50.856;3.634;2022-07-29T14:26:55;5.53;;;2.80;;
8165;SDS011;4124;50.856;3.634;2022-07-29T14:29:20;2.70;;;2.20;;
8165;SDS011;4124;50.856;3.634;2022-07-29T14:31:46;5.17;;;2.70;;
8165;SDS011;4124;50.856;3.634;2022-07-29T14:34:11;4.70;;;3.20;;
8165;SDS011;4124;50.856;3.634;2022-07-29T14:36:36;3.93;;;1.90;;
8165;SDS011;4124;50.856;3.634;2022-07-29T14:39:01;5.40;;;2.53;;
8165;SDS011;4124;50.856;3.634;2022-07-29T14:41:27;2.90;;;2.43;;
8165;SDS011;4124;50.856;3.634;2022-07-29T14:43:53;2.53;;;2.33;;
8165;SDS011;4124;50.856;3.634;2022-07-29T14:46:18;3.63;;;2.57;;
8165;SDS011;4124;50.856;3.634;2022-07-29T14:48:43;2.70;;;2.50;;
8165;SDS011;4124;50.856;3.634;2022-07-29T14:51:09;3.77;;;2.60;;
8165;SDS011;4124;50.856;3.634;2022-07-29T14:53:35;2.80;;;2.33;;
8165;SDS011;4124;50.856;3.634;2022-07-29T14:56:00;2.20;;;2.00;;
8165;SDS011;4124;50.856;3.634;2022-07-29T14:58:25;8.80;;;3.00;;
8165;SDS011;4124;50.856;3.634;2022-07-29T15:00:51;3.53;;;2.20;;
8165;SDS011;4124;50.856;3.634;2022-07-29T15:03:16;3.60;;;2.33;;
8165;SDS011;4124;50.856;3.634;2022-07-29T15:05:41;4.70;;;2.17;;
8165;SDS011;4124;50.856;3.634;2022-07-29T15:08:06;3.37;;;2.40;;
8165;SDS011;4124;50.856;3.634;2022-07-29T15:10:33;4.00;;;2.57;;
8165;SDS011;4124;50.856;3.634;2022-07-29T15:12:58;3.07;;;2.00;;
8165;SDS011;4124;50.856;3.634;2022-07-29T15:15:23;3.97;;;2.53;;
8165;SDS011;4124;50.856;3.634;2022-07-29T15:17:49;4.10;;;2.60;;
8165;SDS011;4124;50.856;3.634;2022-07-29T15:20:14;3.17;;;2.27;;
8165;SDS011;4124;50.856;3.634;2022-07-29T15:22:39;2.83;;;2.20;;
8165;SDS011;4124;50.856;3.634;2022-07-29T15:25:06;3.90;;;2.53;;
8165;SDS011;4124;50.856;3.634;2022-07-29T15:27:31;4.53;;;2.40;;
8165;SDS011;4124;50.856;3.634;2022-07-29T15:29:56;3.20;;;2.60;;
8165;SDS011;4124;50.856;3.634;2022-07-29T15:32:22;2.67;;;2.47;;
8165;SDS011;4124;50.856;3.634;2022-07-29T15:34:48;2.90;;;2.60;;
8165;SDS011;4124;50.856;3.634;2022-07-29T15:37:13;2.90;;;2.37;;
8165;SDS011;4124;50.856;3.634;2022-07-29T15:39:38;3.00;;;2.57;;
8165;SDS011;4124;50.856;3.634;2022-07-29T15:42:03;3.00;;;2.13;;
8165;SDS011;4124;50.856;3.634;2022-07-29T15:44:29;3.00;;;2.20;;
8165;SDS011;4124;50.856;3.634;2022-07-29T15:46:54;2.23;;;1.97;;
8165;SDS011;4124;50.856;3.634;2022-07-29T15:49:35;3.07;;;2.10;;
8165;SDS011;4124;50.856;3.634;2022-07-29T15:52:01;2.37;;;2.13;;
8165;SDS011;4124;50.856;3.634;2022-07-29T15:54:28;5.30;;;2.57;;
8165;SDS011;4124;50.856;3.634;2022-07-29T15:56:53;3.10;;;2.30;;
8165;SDS011;4124;50.856;3.634;2022-07-29T15:59:19;3.40;;;2.70;;
8165;SDS011;4124;50.856;3.634;2022-07-29T16:01:44;5.07;;;2.57;;